Time;durP1;ratioP1;P1;durP2;ratioP2;P2;SDS_P1;SDS_P2;PMS_P1;PMS_P2;Temp;Humidity;BMP_temperature;BMP_pressure;BME280_temperature;BME280_humidity;BME280_pressure;Samples;Min_cycle;Max_cycle;Signal;HPM_P1;HPM_P2
2022/10/23 00:02:50;;;;;;;7.22;2.50;;;;;;;;;;10370161;28;20475;-59
2022/10/23 00:07:51;;;;;;;6.15;2.42;;;;;;;;;;10357994;28;20029;-59
2022/10/23 00:12:52;;;;;;;5.35;2.10;;;;;;;;;;10358034;28;20041;-59
2022/10/23 00:17:53;;;;;;;8.00;2.60;;;;;;;;;;10396658;28;20473;-59
2022/10/23 00:22:53;;;;;;;7.15;2.40;;;;;;;;;;10368304;28;20068;-59
2022/10/23 00:27:53;;;;;;;3.17;1.98;;;;;;;;;;10370486;28;20026;-59
2022/10/23 00:32:54;;;;;;;1.90;1.73;;;;;;;;;;10368665;28;20507;-59
2022/10/23 00:37:54;;;;;;;2.85;1.77;;;;;;;;;;10344579;28;20502;-59
2022/10/23 00:42:54;;;;;;;7.22;2.10;;;;;;;;;;10368885;28;20034;-59
2022/10/23 00:47:54;;;;;;;3.58;2.15;;;;;;;;;;10370068;28;20041;-59
2022/10/23 00:52:55;;;;;;;3.70;2.08;;;;;;;;;;10368745;28;20030;-59
2022/10/23 00:57:56;;;;;;;8.35;2.30;;;;;;;;;;10368205;28;20038;-58
2022/10/23 01:02:56;;;;;;;5.20;1.83;;;;;;;;;;10372472;28;20030;-59
2022/10/23 01:08:09;;;;;;;3.95;2.05;;;;;;;;;;10362776;28;20026;-57
2022/10/23 01:13:18;;;;;;;4.85;2.10;;;;;;;;;;10364588;28;20504;-57
2022/10/23 01:18:47;;;;;;;5.07;2.10;;;;;;;;;;10365056;28;20037;-57
2022/10/23 01:23:53;;;;;;;5.28;1.70;;;;;;;;;;10369381;28;20094;-56
2022/10/23 01:28:53;;;;;;;2.55;1.80;;;;;;;;;;10373736;28;20029;-58
2022/10/23 01:33:56;;;;;;;2.05;1.80;;;;;;;;;;10371933;28;20470;-59
2022/10/23 01:38:56;;;;;;;3.00;1.92;;;;;;;;;;10386616;28;20033;-59
2022/10/23 01:44:07;;;;;;;4.28;2.03;;;;;;;;;;10366618;28;20469;-59
2022/10/23 01:49:09;;;;;;;4.50;2.15;;;;;;;;;;10376490;28;20061;-59
2022/10/23 01:54:11;;;;;;;4.30;2.00;;;;;;;;;;10370009;28;20122;-58
2022/10/23 01:59:13;;;;;;;4.70;1.70;;;;;;;;;;10341004;28;20498;-59
2022/10/23 02:04:16;;;;;;;2.03;1.58;;;;;;;;;;10348526;28;20386;-59
2022/10/23 02:09:17;;;;;;;4.80;1.67;;;;;;;;;;10359459;28;20038;-59
2022/10/23 02:14:23;;;;;;;5.38;1.80;;;;;;;;;;10353567;28;20014;-59
2022/10/23 02:19:23;;;;;;;4.35;1.88;;;;;;;;;;10385592;28;20056;-59
2022/10/23 02:24:50;;;;;;;2.65;1.77;;;;;;;;;;10377684;28;20043;-59
2022/10/23 02:30:10;;;;;;;2.95;1.73;;;;;;;;;;10380969;28;20068;-59
2022/10/23 02:35:11;;;;;;;3.00;1.98;;;;;;;;;;10382163;28;20400;-58
2022/10/23 02:40:11;;;;;;;2.00;1.80;;;;;;;;;;10367080;28;20040;-57
2022/10/23 02:45:28;;;;;;;2.42;1.75;;;;;;;;;;10380761;28;20025;-58
2022/10/23 02:50:47;;;;;;;2.63;1.80;;;;;;;;;;10355685;28;20036;-58
2022/10/23 02:55:53;;;;;;;3.40;1.52;;;;;;;;;;10378600;28;20044;-58
2022/10/23 03:00:56;;;;;;;1.83;1.63;;;;;;;;;;10399704;28;20049;-58
2022/10/23 03:05:57;;;;;;;2.95;1.67;;;;;;;;;;10367629;28;20428;-58
2022/10/23 03:10:57;;;;;;;2.27;1.47;;;;;;;;;;10385138;28;20088;-58
2022/10/23 03:15:57;;;;;;;2.65;1.48;;;;;;;;;;10365066;28;20529;-58
2022/10/23 03:20:58;;;;;;;2.75;1.70;;;;;;;;;;10366097;28;20032;-58
2022/10/23 03:25:58;;;;;;;3.67;1.50;;;;;;;;;;10368142;28;20108;-59
2022/10/23 03:31:00;;;;;;;2.20;1.60;;;;;;;;;;10372882;28;20125;-59
2022/10/23 03:36:01;;;;;;;3.00;1.63;;;;;;;;;;10370538;28;20049;-59
2022/10/23 03:41:01;;;;;;;1.93;1.37;;;;;;;;;;10386692;28;20030;-58
2022/10/23 03:46:02;;;;;;;2.42;1.50;;;;;;;;;;10369991;28;20375;-58
2022/10/23 03:51:02;;;;;;;1.42;1.30;;;;;;;;;;10356469;28;20030;-58
2022/10/23 03:56:03;;;;;;;2.25;1.40;;;;;;;;;;10351000;28;20089;-58
2022/10/23 04:01:03;;;;;;;2.05;1.50;;;;;;;;;;10377801;28;20224;-58
2022/10/23 04:06:04;;;;;;;1.40;1.30;;;;;;;;;;10364525;28;20512;-58
2022/10/23 04:11:04;;;;;;;2.03;1.63;;;;;;;;;;10381456;28;20112;-58
2022/10/23 04:16:04;;;;;;;2.67;1.23;;;;;;;;;;10397541;28;20447;-58
2022/10/23 04:21:04;;;;;;;3.20;1.53;;;;;;;;;;10380826;28;20573;-58
2022/10/23 04:26:05;;;;;;;2.25;1.35;;;;;;;;;;10370509;28;20073;-58
2022/10/23 04:31:05;;;;;;;1.13;1.08;;;;;;;;;;10366760;28;20030;-58
2022/10/23 04:36:05;;;;;;;2.27;1.20;;;;;;;;;;10388582;28;20060;-58
2022/10/23 04:41:06;;;;;;;5.97;1.50;;;;;;;;;;10383509;28;20088;-58
2022/10/23 04:46:06;;;;;;;1.93;1.50;;;;;;;;;;10394014;28;20400;-57
2022/10/23 04:51:07;;;;;;;1.98;1.50;;;;;;;;;;10382931;28;20034;-58
2022/10/23 04:56:07;;;;;;;1.48;1.10;;;;;;;;;;10368555;28;20121;-58
2022/10/23 05:01:09;;;;;;;1.50;1.23;;;;;;;;;;10355773;28;20386;-58
2022/10/23 05:06:09;;;;;;;1.42;1.20;;;;;;;;;;10367731;28;20312;-58
2022/10/23 05:11:09;;;;;;;1.23;1.13;;;;;;;;;;10367772;28;20360;-58
2022/10/23 05:16:12;;;;;;;1.63;1.37;;;;;;;;;;10368410;28;20918;-59
2022/10/23 05:21:16;;;;;;;1.38;1.27;;;;;;;;;;10366759;28;20042;-58
2022/10/23 05:26:16;;;;;;;1.80;1.33;;;;;;;;;;10394453;28;20026;-58
2022/10/23 05:31:17;;;;;;;1.52;1.17;;;;;;;;;;10365078;28;20033;-58
2022/10/23 05:36:17;;;;;;;1.77;1.10;;;;;;;;;;10392590;28;20030;-58
2022/10/23 05:41:17;;;;;;;1.40;1.20;;;;;;;;;;10367839;28;20484;-58
2022/10/23 05:46:17;;;;;;;2.67;1.55;;;;;;;;;;10379705;28;20133;-58
2022/10/23 05:51:21;;;;;;;2.03;1.20;;;;;;;;;;10368691;28;20385;-58
2022/10/23 05:56:21;;;;;;;1.77;1.35;;;;;;;;;;10365737;28;20385;-58
2022/10/23 06:01:21;;;;;;;1.83;1.27;;;;;;;;;;10365813;28;20057;-58
2022/10/23 06:06:22;;;;;;;1.70;1.33;;;;;;;;;;10370747;28;20030;-58
2022/10/23 06:11:22;;;;;;;1.05;1.05;;;;;;;;;;10366295;28;20025;-58
2022/10/23 06:16:26;;;;;;;1.48;1.20;;;;;;;;;;10362419;28;20393;-58
2022/10/23 06:21:26;;;;;;;1.85;1.20;;;;;;;;;;10368251;28;20057;-58
2022/10/23 06:26:26;;;;;;;1.40;1.30;;;;;;;;;;10374711;28;20130;-58
2022/10/23 06:31:27;;;;;;;1.42;1.33;;;;;;;;;;10362478;28;20026;-58
2022/10/23 06:36:27;;;;;;;4.35;1.20;;;;;;;;;;10377481;28;20105;-58
2022/10/23 06:41:27;;;;;;;1.47;1.37;;;;;;;;;;10367232;28;20137;-58
2022/10/23 06:46:31;;;;;;;1.58;1.20;;;;;;;;;;10365055;28;20038;-58
2022/10/23 06:51:31;;;;;;;1.33;1.23;;;;;;;;;;10375613;28;20029;-58
2022/10/23 06:56:33;;;;;;;1.20;1.10;;;;;;;;;;10368193;28;20037;-58
2022/10/23 07:01:34;;;;;;;1.10;1.00;;;;;;;;;;10374052;28;20060;-58
2022/10/23 07:06:35;;;;;;;2.33;1.33;;;;;;;;;;10374792;28;20076;-58
2022/10/23 07:11:36;;;;;;;1.20;1.07;;;;;;;;;;10374230;28;20029;-58
2022/10/23 07:16:37;;;;;;;7.00;1.45;;;;;;;;;;10373990;28;20104;-59
2022/10/23 07:21:38;;;;;;;8.27;1.42;;;;;;;;;;10373764;28;20076;-60
2022/10/23 07:26:40;;;;;;;5.10;1.70;;;;;;;;;;10374412;28;20026;-60
2022/10/23 07:31:41;;;;;;;5.97;1.80;;;;;;;;;;10373756;28;20022;-60
2022/10/23 07:36:42;;;;;;;6.95;1.73;;;;;;;;;;10373736;28;20026;-60
2022/10/23 07:41:42;;;;;;;1.77;1.30;;;;;;;;;;10373519;28;20041;-60
2022/10/23 07:46:43;;;;;;;4.00;1.50;;;;;;;;;;10380469;28;20046;-60
2022/10/23 07:51:44;;;;;;;3.58;1.80;;;;;;;;;;10381155;28;20034;-59
2022/10/23 07:56:45;;;;;;;2.90;1.40;;;;;;;;;;10380589;28;20034;-59
2022/10/23 08:01:48;;;;;;;5.32;1.48;;;;;;;;;;10375882;28;20038;-58
2022/10/23 08:06:48;;;;;;;2.20;1.20;;;;;;;;;;10383672;28;20034;-59
2022/10/23 08:11:48;;;;;;;1.30;1.20;;;;;;;;;;10358134;28;20491;-59
2022/10/23 08:16:49;;;;;;;2.40;1.42;;;;;;;;;;10354463;28;20441;-59
2022/10/23 08:21:53;;;;;;;5.13;1.30;;;;;;;;;;10354468;28;20374;-59
2022/10/23 08:26:57;;;;;;;2.78;1.50;;;;;;;;;;10367185;28;20092;-61
2022/10/23 08:31:57;;;;;;;2.80;1.63;;;;;;;;;;10373560;28;20036;-59
2022/10/23 08:36:58;;;;;;;3.70;1.45;;;;;;;;;;10390920;28;20118;-59
2022/10/23 08:41:58;;;;;;;2.45;1.27;;;;;;;;;;10370801;28;20053;-60
2022/10/23 08:47:07;;;;;;;1.35;1.25;;;;;;;;;;10382295;28;20026;-60
2022/10/23 08:52:22;;;;;;;6.18;1.63;;;;;;;;;;10371789;28;20036;-59
2022/10/23 08:57:25;;;;;;;2.25;1.30;;;;;;;;;;10367923;28;20058;-59
2022/10/23 09:02:34;;;;;;;2.95;1.35;;;;;;;;;;10356463;28;20031;-59
2022/10/23 09:07:39;;;;;;;2.15;1.30;;;;;;;;;;10370555;28;20030;-58
2022/10/23 09:12:39;;;;;;;2.15;1.20;;;;;;;;;;10367750;28;20036;-59
2022/10/23 09:17:42;;;;;;;1.38;1.27;;;;;;;;;;10367613;28;20033;-59
2022/10/23 09:22:42;;;;;;;3.00;1.30;;;;;;;;;;10367693;28;20477;-59
2022/10/23 09:27:51;;;;;;;2.65;1.20;;;;;;;;;;10354875;28;20034;-60
2022/10/23 09:32:51;;;;;;;2.22;1.40;;;;;;;;;;10367377;28;20037;-60
2022/10/23 09:37:56;;;;;;;1.20;1.10;;;;;;;;;;10380328;28;20032;-58
2022/10/23 09:42:56;;;;;;;1.27;1.17;;;;;;;;;;10381744;28;20038;-60
2022/10/23 09:48:09;;;;;;;2.47;1.13;;;;;;;;;;10374104;28;20182;-59
2022/10/23 09:53:14;;;;;;;1.70;1.20;;;;;;;;;;10374885;28;20022;-59
2022/10/23 09:58:24;;;;;;;3.88;1.25;;;;;;;;;;10366616;28;20069;-59
2022/10/23 10:03:24;;;;;;;2.67;1.25;;;;;;;;;;10364109;28;20464;-59
2022/10/23 10:08:25;;;;;;;1.40;1.10;;;;;;;;;;10364844;28;20060;-59
2022/10/23 10:13:37;;;;;;;3.17;1.30;;;;;;;;;;10351055;28;20441;-59
2022/10/23 10:18:40;;;;;;;4.28;1.35;;;;;;;;;;10365352;28;20096;-60
2022/10/23 10:24:04;;;;;;;1.42;1.20;;;;;;;;;;10358908;28;20041;-59
2022/10/23 10:29:11;;;;;;;1.20;1.10;;;;;;;;;;10364548;28;20034;-59
2022/10/23 10:34:24;;;;;;;1.35;1.20;;;;;;;;;;10376630;28;20018;-59
2022/10/23 10:39:45;;;;;;;1.20;1.10;;;;;;;;;;10363236;28;20324;-59
2022/10/23 10:45:00;;;;;;;1.42;1.10;;;;;;;;;;10365615;28;20124;-59
2022/10/23 10:50:01;;;;;;;2.58;1.13;;;;;;;;;;10365168;28;20062;-59
2022/10/23 10:55:18;;;;;;;1.20;1.10;;;;;;;;;;10359390;28;20117;-59
2022/10/23 11:00:20;;;;;;;1.63;1.30;;;;;;;;;;10355547;28;20100;-59
2022/10/23 11:05:34;;;;;;;1.23;1.10;;;;;;;;;;10366419;28;20495;-59
2022/10/23 11:10:37;;;;;;;2.60;1.40;;;;;;;;;;10348179;28;20041;-59
2022/10/23 11:15:39;;;;;;;1.38;1.02;;;;;;;;;;10337728;28;20194;-59
2022/10/23 11:20:53;;;;;;;2.05;1.40;;;;;;;;;;10368238;28;20034;-60
2022/10/23 11:26:16;;;;;;;7.10;4.82;;;;;;;;;;10355919;28;20470;-59
2022/10/23 11:31:35;;;;;;;13.05;7.90;;;;;;;;;;10351294;28;20036;-59
2022/10/23 11:36:45;;;;;;;11.93;9.45;;;;;;;;;;10387073;28;20095;-59
2022/10/23 11:41:53;;;;;;;15.40;8.90;;;;;;;;;;10371079;28;20053;-59
2022/10/23 11:47:01;;;;;;;13.07;7.63;;;;;;;;;;10385118;28;20099;-59
2022/10/23 11:52:03;;;;;;;9.52;7.00;;;;;;;;;;10370141;28;20034;-60
2022/10/23 11:57:06;;;;;;;10.80;6.38;;;;;;;;;;10373235;28;20496;-59
2022/10/23 12:02:25;;;;;;;7.30;5.20;;;;;;;;;;10371139;28;20473;-59
2022/10/23 12:07:28;;;;;;;12.32;5.45;;;;;;;;;;10377584;28;20441;-59
2022/10/23 12:12:39;;;;;;;6.57;4.75;;;;;;;;;;10372080;28;20029;-57
2022/10/23 12:17:41;;;;;;;9.95;5.30;;;;;;;;;;10369932;28;20042;-58
2022/10/23 12:22:41;;;;;;;8.13;4.22;;;;;;;;;;10372596;28;20050;-60
2022/10/23 12:28:00;;;;;;;8.85;4.00;;;;;;;;;;10382918;28;20037;-60
2022/10/23 12:33:18;;;;;;;8.02;4.05;;;;;;;;;;10370385;28;20394;-59
2022/10/23 12:38:18;;;;;;;9.43;4.13;;;;;;;;;;10367668;28;20049;-59
2022/10/23 12:43:32;;;;;;;11.13;4.05;;;;;;;;;;10368472;28;20033;-60
2022/10/23 12:48:33;;;;;;;8.80;3.90;;;;;;;;;;10371343;28;20492;-59
2022/10/23 12:53:33;;;;;;;7.22;3.72;;;;;;;;;;10379558;28;20057;-58
2022/10/23 12:58:34;;;;;;;5.63;3.33;;;;;;;;;;10367722;28;20045;-58
2022/10/23 13:03:34;;;;;;;6.10;3.58;;;;;;;;;;10370220;28;20488;-58
2022/10/23 13:08:39;;;;;;;10.38;4.07;;;;;;;;;;10368680;28;20405;-59
2022/10/23 13:13:40;;;;;;;12.75;5.25;;;;;;;;;;10376211;28;20034;-59
2022/10/23 13:18:41;;;;;;;11.45;4.40;;;;;;;;;;10368741;28;20101;-60
2022/10/23 13:23:42;;;;;;;10.48;4.18;;;;;;;;;;10358116;28;20042;-59
2022/10/23 13:28:43;;;;;;;9.20;4.00;;;;;;;;;;10368695;28;20026;-58
2022/10/23 13:33:45;;;;;;;8.60;3.50;;;;;;;;;;10375762;28;20052;-59
2022/10/23 13:38:46;;;;;;;18.40;4.55;;;;;;;;;;10366482;28;20034;-59
2022/10/23 13:43:47;;;;;;;19.38;4.85;;;;;;;;;;10367861;28;20113;-59
2022/10/23 13:48:47;;;;;;;11.52;4.68;;;;;;;;;;10368957;28;20121;-59
2022/10/23 13:53:48;;;;;;;10.13;4.13;;;;;;;;;;10373316;28;20036;-59
2022/10/23 13:58:49;;;;;;;18.25;4.35;;;;;;;;;;10369221;28;20056;-59
2022/10/23 14:03:49;;;;;;;8.25;3.80;;;;;;;;;;10368888;28;20080;-59
2022/10/23 14:08:50;;;;;;;15.45;3.60;;;;;;;;;;10366973;28;20025;-59
2022/10/23 14:13:51;;;;;;;7.78;3.45;;;;;;;;;;10366207;28;20482;-59
2022/10/23 14:18:52;;;;;;;8.40;3.42;;;;;;;;;;10366679;28;20447;-59
2022/10/23 14:23:52;;;;;;;7.13;3.27;;;;;;;;;;10345980;28;20042;-59
2022/10/23 14:28:53;;;;;;;6.80;2.97;;;;;;;;;;10355577;28;20816;-59
2022/10/23 14:33:54;;;;;;;8.23;3.58;;;;;;;;;;10357064;28;20026;-59
2022/10/23 14:38:56;;;;;;;7.88;3.30;;;;;;;;;;10361085;28;20042;-59
2022/10/23 14:43:56;;;;;;;9.48;3.25;;;;;;;;;;10365007;28;20040;-59
2022/10/23 14:48:56;;;;;;;5.28;2.85;;;;;;;;;;10365496;28;20032;-59
2022/10/23 14:54:00;;;;;;;7.27;3.63;;;;;;;;;;10367788;28;20063;-59
2022/10/23 14:59:03;;;;;;;6.78;2.80;;;;;;;;;;10351462;28;20124;-59
2022/10/23 15:04:04;;;;;;;10.15;3.38;;;;;;;;;;10345140;28;20025;-57
2022/10/23 15:09:05;;;;;;;8.80;2.97;;;;;;;;;;10367748;28;20030;-58
2022/10/23 15:14:06;;;;;;;6.30;2.90;;;;;;;;;;10344011;28;20445;-59
2022/10/23 15:19:10;;;;;;;7.33;3.70;;;;;;;;;;10360267;28;20038;-59
2022/10/23 15:24:10;;;;;;;5.03;2.92;;;;;;;;;;10374477;28;20034;-59
2022/10/23 15:29:11;;;;;;;9.60;3.43;;;;;;;;;;10364634;28;20030;-60
2022/10/23 15:34:13;;;;;;;5.07;2.85;;;;;;;;;;10367761;28;20427;-59
2022/10/23 15:39:14;;;;;;;10.45;3.22;;;;;;;;;;10352692;28;20030;-58
2022/10/23 15:44:16;;;;;;;8.25;2.95;;;;;;;;;;10345866;28;20034;-60
2022/10/23 15:49:16;;;;;;;9.02;3.40;;;;;;;;;;10352447;28;20033;-58
2022/10/23 15:54:18;;;;;;;8.57;2.83;;;;;;;;;;10363957;28;20040;-57
2022/10/23 15:59:20;;;;;;;7.32;3.17;;;;;;;;;;10356413;28;20046;-58
2022/10/23 16:04:20;;;;;;;5.88;3.17;;;;;;;;;;10358440;28;20125;-59
2022/10/23 16:09:21;;;;;;;5.00;2.70;;;;;;;;;;10366354;28;20034;-61
2022/10/23 16:14:21;;;;;;;5.53;2.88;;;;;;;;;;10367924;28;20048;-58
2022/10/23 16:19:23;;;;;;;7.07;2.85;;;;;;;;;;10363673;28;20441;-57
2022/10/23 16:24:23;;;;;;;4.95;2.63;;;;;;;;;;10366437;28;20073;-59
2022/10/23 16:29:24;;;;;;;12.07;3.40;;;;;;;;;;10368898;28;20076;-59
2022/10/23 16:34:25;;;;;;;7.25;3.30;;;;;;;;;;10368827;28;20618;-59
2022/10/23 16:39:25;;;;;;;12.73;3.50;;;;;;;;;;10361399;28;20080;-59
2022/10/23 16:44:25;;;;;;;5.40;2.88;;;;;;;;;;10358931;28;20033;-59
2022/10/23 16:49:28;;;;;;;7.30;3.38;;;;;;;;;;10376286;28;20029;-59
2022/10/23 16:54:28;;;;;;;10.25;3.17;;;;;;;;;;10367477;28;20124;-58
2022/10/23 16:59:29;;;;;;;5.88;2.85;;;;;;;;;;10373744;28;20511;-59
2022/10/23 17:04:29;;;;;;;6.68;2.83;;;;;;;;;;10368624;28;20042;-59
2022/10/23 17:09:30;;;;;;;5.82;2.30;;;;;;;;;;10367856;28;20068;-60
2022/10/23 17:14:30;;;;;;;7.22;2.83;;;;;;;;;;10367357;28;20030;-59
2022/10/23 17:19:31;;;;;;;6.32;2.80;;;;;;;;;;10367089;28;20030;-59
2022/10/23 17:24:31;;;;;;;6.63;2.80;;;;;;;;;;10372929;28;20038;-59
2022/10/23 17:29:32;;;;;;;6.28;2.83;;;;;;;;;;10398754;28;20050;-59
2022/10/23 17:34:32;;;;;;;8.93;2.92;;;;;;;;;;10377798;28;20033;-58
2022/10/23 17:39:32;;;;;;;4.10;2.50;;;;;;;;;;10368051;28;20026;-60
2022/10/23 17:44:33;;;;;;;8.43;3.03;;;;;;;;;;10366042;28;20042;-59
2022/10/23 17:49:33;;;;;;;6.10;2.87;;;;;;;;;;10367068;28;20172;-59
2022/10/23 17:54:33;;;;;;;11.23;2.90;;;;;;;;;;10367844;28;20114;-59
2022/10/23 17:59:34;;;;;;;6.68;2.55;;;;;;;;;;10365985;28;20054;-58
2022/10/23 18:04:34;;;;;;;5.03;2.70;;;;;;;;;;10365781;28;20095;-59
2022/10/23 18:09:34;;;;;;;9.00;2.70;;;;;;;;;;10351246;28;20028;-58
2022/10/23 18:14:35;;;;;;;7.35;2.60;;;;;;;;;;10357910;28;20460;-58
2022/10/23 18:19:35;;;;;;;8.18;3.08;;;;;;;;;;10367465;28;20124;-58
2022/10/23 18:24:37;;;;;;;3.87;2.30;;;;;;;;;;10365706;28;20030;-58
2022/10/23 18:29:38;;;;;;;7.13;2.97;;;;;;;;;;10353695;28;20029;-59
2022/10/23 18:34:38;;;;;;;4.75;2.72;;;;;;;;;;10367814;28;20045;-59
2022/10/23 18:39:38;;;;;;;8.25;2.53;;;;;;;;;;10346326;28;20029;-58
2022/10/23 18:44:39;;;;;;;8.50;2.97;;;;;;;;;;10363413;28;20049;-59
2022/10/23 18:49:39;;;;;;;5.10;2.70;;;;;;;;;;10361751;28;20030;-58
2022/10/23 18:54:39;;;;;;;8.45;2.72;;;;;;;;;;10383185;28;20037;-57
2022/10/23 18:59:40;;;;;;;5.20;2.30;;;;;;;;;;10363062;28;20058;-59
2022/10/23 19:04:40;;;;;;;7.40;2.50;;;;;;;;;;10362954;28;20034;-58
2022/10/23 19:09:41;;;;;;;5.18;3.03;;;;;;;;;;10350653;28;20017;-59
2022/10/23 19:14:41;;;;;;;7.95;2.45;;;;;;;;;;10379254;28;20140;-58
2022/10/23 19:19:43;;;;;;;6.70;2.78;;;;;;;;;;10381350;28;20057;-58
2022/10/23 19:24:52;;;;;;;5.70;2.10;;;;;;;;;;10363249;28;20069;-58
2022/10/23 19:29:53;;;;;;;4.88;2.60;;;;;;;;;;10367638;28;20508;-58
2022/10/23 19:34:53;;;;;;;5.28;2.50;;;;;;;;;;10382654;28;20036;-60
2022/10/23 19:39:53;;;;;;;6.53;2.28;;;;;;;;;;10361726;28;20072;-59
2022/10/23 19:44:54;;;;;;;6.38;2.80;;;;;;;;;;10372215;28;20037;-58
2022/10/23 19:49:54;;;;;;;5.82;3.15;;;;;;;;;;10371771;28;20032;-59
2022/10/23 19:54:54;;;;;;;6.53;2.42;;;;;;;;;;10379312;28;20033;-59
2022/10/23 19:59:54;;;;;;;8.73;2.58;;;;;;;;;;10390661;28;20106;-58
2022/10/23 20:04:55;;;;;;;4.87;2.43;;;;;;;;;;10377217;28;20048;-59
2022/10/23 20:09:55;;;;;;;4.68;2.65;;;;;;;;;;10371328;28;20029;-58
2022/10/23 20:14:56;;;;;;;6.75;2.83;;;;;;;;;;10371019;28;20029;-58
2022/10/23 20:19:56;;;;;;;8.27;2.67;;;;;;;;;;10374046;28;20461;-58
2022/10/23 20:24:56;;;;;;;5.22;2.30;;;;;;;;;;10364998;28;20044;-58
2022/10/23 20:29:56;;;;;;;9.52;2.55;;;;;;;;;;10384177;28;20038;-59
2022/10/23 20:34:58;;;;;;;4.05;2.40;;;;;;;;;;10400524;28;20058;-58
2022/10/23 20:39:58;;;;;;;4.15;2.25;;;;;;;;;;10375682;28;20037;-59
2022/10/23 20:44:58;;;;;;;8.38;2.90;;;;;;;;;;10369839;28;20029;-58
2022/10/23 20:49:59;;;;;;;6.18;2.65;;;;;;;;;;10369518;28;20117;-59
2022/10/23 20:54:59;;;;;;;3.20;2.20;;;;;;;;;;10376623;28;20037;-58
2022/10/23 21:00:01;;;;;;;5.70;1.90;;;;;;;;;;10381992;28;20073;-58
2022/10/23 21:05:02;;;;;;;5.57;2.50;;;;;;;;;;10377224;28;20736;-58
2022/10/23 21:10:03;;;;;;;4.13;2.07;;;;;;;;;;10379900;28;20032;-58
2022/10/23 21:15:04;;;;;;;5.55;2.40;;;;;;;;;;10365907;28;20045;-59
2022/10/23 21:20:04;;;;;;;6.43;2.05;;;;;;;;;;10364323;28;20204;-59
2022/10/23 21:25:05;;;;;;;18.63;2.92;;;;;;;;;;10362878;28;20042;-59
2022/10/23 21:30:06;;;;;;;8.63;2.67;;;;;;;;;;10377532;28;20033;-59
2022/10/23 21:35:07;;;;;;;8.65;2.55;;;;;;;;;;10375819;28;20045;-59
2022/10/23 21:40:08;;;;;;;7.18;2.30;;;;;;;;;;10366198;28;20381;-57
2022/10/23 21:45:08;;;;;;;10.98;2.60;;;;;;;;;;10351949;28;20405;-59
2022/10/23 21:50:09;;;;;;;9.87;2.77;;;;;;;;;;10359380;28;20045;-59
2022/10/23 21:55:09;;;;;;;5.85;2.30;;;;;;;;;;10371357;28;20463;-59
2022/10/23 22:00:18;;;;;;;5.77;2.60;;;;;;;;;;10374881;28;20543;-58
2022/10/23 22:05:19;;;;;;;8.85;2.65;;;;;;;;;;10374215;28;20033;-58
2022/10/23 22:10:19;;;;;;;7.30;2.60;;;;;;;;;;10359474;28;20034;-58
2022/10/23 22:15:19;;;;;;;5.15;2.30;;;;;;;;;;10362384;28;20076;-58
2022/10/23 22:20:19;;;;;;;8.50;1.98;;;;;;;;;;10366408;28;20024;-59
2022/10/23 22:25:20;;;;;;;4.40;2.28;;;;;;;;;;10359195;28;20073;-58
2022/10/23 22:30:20;;;;;;;5.97;2.20;;;;;;;;;;10336045;28;20404;-59
2022/10/23 22:35:20;;;;;;;9.00;2.20;;;;;;;;;;10371855;28;20666;-59
2022/10/23 22:40:21;;;;;;;7.88;2.25;;;;;;;;;;10365827;28;20507;-58
2022/10/23 22:45:21;;;;;;;6.90;2.30;;;;;;;;;;10377894;28;20044;-58
2022/10/23 22:50:21;;;;;;;6.18;2.53;;;;;;;;;;10356296;28;20029;-58
2022/10/23 22:55:21;;;;;;;6.28;2.38;;;;;;;;;;10369793;28;20045;-59
2022/10/23 23:00:22;;;;;;;6.93;2.30;;;;;;;;;;10365664;28;20056;-59
2022/10/23 23:05:22;;;;;;;6.13;2.45;;;;;;;;;;10346950;28;20034;-59
2022/10/23 23:10:22;;;;;;;4.20;1.90;;;;;;;;;;10367525;28;20480;-58
2022/10/23 23:15:22;;;;;;;3.42;2.20;;;;;;;;;;10356148;28;20493;-59
2022/10/23 23:20:23;;;;;;;2.90;1.92;;;;;;;;;;10351318;28;20038;-58
2022/10/23 23:25:23;;;;;;;4.00;2.63;;;;;;;;;;10368277;28;20040;-59
2022/10/23 23:30:23;;;;;;;2.90;2.13;;;;;;;;;;10376224;28;20046;-58
2022/10/23 23:35:23;;;;;;;2.45;1.95;;;;;;;;;;10400752;28;20022;-59
2022/10/23 23:40:24;;;;;;;2.65;2.13;;;;;;;;;;10372623;28;20515;-59
2022/10/23 23:45:24;;;;;;;9.47;2.27;;;;;;;;;;10362310;28;20373;-59
2022/10/23 23:50:26;;;;;;;4.32;1.95;;;;;;;;;;10367842;28;20049;-58
2022/10/23 23:55:27;;;;;;;2.78;1.92;;;;;;;;;;10360892;28;20033;-58
